sensor_id;sensor_type;location;lat;lon;timestamp;P1;durP1;ratioP1;P2;durP2;ratioP2
31716;SDS011;18301;51.076;17.046;2023-02-15T00:02:02;34.25;;;15.98;;
31716;SDS011;18301;51.076;17.046;2023-02-15T00:07:03;30.67;;;15.27;;
31716;SDS011;18301;51.076;17.046;2023-02-15T00:12:05;31.48;;;15.00;;
31716;SDS011;18301;51.076;17.046;2023-02-15T00:17:06;25.48;;;13.38;;
31716;SDS011;18301;51.076;17.046;2023-02-15T00:22:08;33.55;;;14.90;;
31716;SDS011;18301;51.076;17.046;2023-02-15T00:27:10;31.52;;;14.52;;
31716;SDS011;18301;51.076;17.046;2023-02-15T00:32:11;28.40;;;14.18;;
31716;SDS011;18301;51.076;17.046;2023-02-15T00:37:13;30.65;;;14.75;;
31716;SDS011;18301;51.076;17.046;2023-02-15T00:42:14;33.95;;;15.52;;
31716;SDS011;18301;51.076;17.046;2023-02-15T00:47:16;32.10;;;16.00;;
31716;SDS011;18301;51.076;17.046;2023-02-15T00:52:17;36.55;;;16.35;;
31716;SDS011;18301;51.076;17.046;2023-02-15T00:57:19;33.78;;;16.42;;
31716;SDS011;18301;51.076;17.046;2023-02-15T01:02:20;32.92;;;16.58;;
31716;SDS011;18301;51.076;17.046;2023-02-15T01:07:22;48.35;;;20.70;;
31716;SDS011;18301;51.076;17.046;2023-02-15T01:12:23;47.08;;;20.35;;
31716;SDS011;18301;51.076;17.046;2023-02-15T01:17:25;55.42;;;23.02;;
31716;SDS011;18301;51.076;17.046;2023-02-15T01:22:26;50.95;;;22.35;;
31716;SDS011;18301;51.076;17.046;2023-02-15T01:27:28;57.85;;;24.17;;
31716;SDS011;18301;51.076;17.046;2023-02-15T01:32:31;59.50;;;25.98;;
31716;SDS011;18301;51.076;17.046;2023-02-15T01:37:33;63.45;;;26.63;;
31716;SDS011;18301;51.076;17.046;2023-02-15T01:42:35;61.40;;;25.92;;
31716;SDS011;18301;51.076;17.046;2023-02-15T01:52:58;63.90;;;26.55;;
31716;SDS011;18301;51.076;17.046;2023-02-15T01:58:14;60.88;;;25.92;;
31716;SDS011;18301;51.076;17.046;2023-02-15T02:03:16;64.68;;;27.23;;
31716;SDS011;18301;51.076;17.046;2023-02-15T02:08:18;60.50;;;26.48;;
31716;SDS011;18301;51.076;17.046;2023-02-15T02:13:20;57.08;;;26.35;;
31716;SDS011;18301;51.076;17.046;2023-02-15T02:23:45;60.30;;;25.75;;
31716;SDS011;18301;51.076;17.046;2023-02-15T02:34:30;63.72;;;26.75;;
31716;SDS011;18301;51.076;17.046;2023-02-15T02:39:48;57.25;;;25.63;;
31716;SDS011;18301;51.076;17.046;2023-02-15T02:45:06;56.33;;;25.52;;
31716;SDS011;18301;51.076;17.046;2023-02-15T02:50:14;49.45;;;22.58;;
31716;SDS011;18301;51.076;17.046;2023-02-15T02:55:22;51.53;;;22.85;;
31716;SDS011;18301;51.076;17.046;2023-02-15T03:00:34;55.08;;;23.67;;
31716;SDS011;18301;51.076;17.046;2023-02-15T03:05:39;52.15;;;22.98;;
31716;SDS011;18301;51.076;17.046;2023-02-15T03:10:45;53.03;;;23.02;;
31716;SDS011;18301;51.076;17.046;2023-02-15T03:15:47;59.00;;;25.27;;
31716;SDS011;18301;51.076;17.046;2023-02-15T03:21:10;53.15;;;23.88;;
31716;SDS011;18301;51.076;17.046;2023-02-15T03:26:23;50.47;;;22.30;;
31716;SDS011;18301;51.076;17.046;2023-02-15T03:31:27;47.20;;;21.35;;
31716;SDS011;18301;51.076;17.046;2023-02-15T03:36:36;51.05;;;21.65;;
31716;SDS011;18301;51.076;17.046;2023-02-15T03:41:57;49.35;;;21.58;;
31716;SDS011;18301;51.076;17.046;2023-02-15T03:47:08;49.83;;;21.77;;
31716;SDS011;18301;51.076;17.046;2023-02-15T03:52:17;49.53;;;23.33;;
31716;SDS011;18301;51.076;17.046;2023-02-15T04:02:49;58.03;;;23.58;;
31716;SDS011;18301;51.076;17.046;2023-02-15T04:07:58;49.97;;;22.58;;
31716;SDS011;18301;51.076;17.046;2023-02-15T04:13:00;54.63;;;24.60;;
31716;SDS011;18301;51.076;17.046;2023-02-15T04:18:02;54.55;;;23.17;;
31716;SDS011;18301;51.076;17.046;2023-02-15T04:23:07;52.40;;;24.23;;
31716;SDS011;18301;51.076;17.046;2023-02-15T04:28:27;49.97;;;23.17;;
31716;SDS011;18301;51.076;17.046;2023-02-15T04:33:29;48.45;;;24.13;;
31716;SDS011;18301;51.076;17.046;2023-02-15T04:38:30;54.05;;;24.42;;
31716;SDS011;18301;51.076;17.046;2023-02-15T04:43:32;52.33;;;25.08;;
31716;SDS011;18301;51.076;17.046;2023-02-15T04:48:33;49.65;;;24.48;;
31716;SDS011;18301;51.076;17.046;2023-02-15T04:53:35;46.85;;;22.05;;
31716;SDS011;18301;51.076;17.046;2023-02-15T04:58:37;42.05;;;21.58;;
31716;SDS011;18301;51.076;17.046;2023-02-15T05:03:42;43.75;;;21.00;;
31716;SDS011;18301;51.076;17.046;2023-02-15T05:08:43;47.58;;;23.15;;
31716;SDS011;18301;51.076;17.046;2023-02-15T05:13:45;43.95;;;21.80;;
31716;SDS011;18301;51.076;17.046;2023-02-15T05:18:46;41.58;;;20.30;;
31716;SDS011;18301;51.076;17.046;2023-02-15T05:23:48;53.65;;;23.75;;
31716;SDS011;18301;51.076;17.046;2023-02-15T05:28:49;66.30;;;29.55;;
31716;SDS011;18301;51.076;17.046;2023-02-15T05:33:51;55.55;;;26.45;;
31716;SDS011;18301;51.076;17.046;2023-02-15T05:38:52;57.55;;;24.58;;
31716;SDS011;18301;51.076;17.046;2023-02-15T05:43:54;53.28;;;24.85;;
31716;SDS011;18301;51.076;17.046;2023-02-15T05:48:57;51.97;;;24.05;;
31716;SDS011;18301;51.076;17.046;2023-02-15T05:53:59;49.33;;;23.83;;
31716;SDS011;18301;51.076;17.046;2023-02-15T05:59:00;48.13;;;21.77;;
31716;SDS011;18301;51.076;17.046;2023-02-15T06:04:02;47.42;;;22.33;;
31716;SDS011;18301;51.076;17.046;2023-02-15T06:09:03;42.72;;;20.33;;
31716;SDS011;18301;51.076;17.046;2023-02-15T06:14:05;45.85;;;21.10;;
31716;SDS011;18301;51.076;17.046;2023-02-15T06:19:06;44.55;;;20.88;;
31716;SDS011;18301;51.076;17.046;2023-02-15T06:24:08;48.65;;;22.33;;
31716;SDS011;18301;51.076;17.046;2023-02-15T06:29:10;53.90;;;24.45;;
31716;SDS011;18301;51.076;17.046;2023-02-15T06:34:11;46.88;;;21.45;;
31716;SDS011;18301;51.076;17.046;2023-02-15T06:39:13;46.78;;;21.55;;
31716;SDS011;18301;51.076;17.046;2023-02-15T06:44:14;51.83;;;23.27;;
31716;SDS011;18301;51.076;17.046;2023-02-15T06:49:16;54.97;;;24.75;;
31716;SDS011;18301;51.076;17.046;2023-02-15T06:54:17;60.25;;;26.50;;
31716;SDS011;18301;51.076;17.046;2023-02-15T06:59:19;57.70;;;24.23;;
31716;SDS011;18301;51.076;17.046;2023-02-15T07:04:20;68.35;;;29.05;;
31716;SDS011;18301;51.076;17.046;2023-02-15T07:09:22;68.22;;;29.25;;
31716;SDS011;18301;51.076;17.046;2023-02-15T07:14:24;60.80;;;27.45;;
31716;SDS011;18301;51.076;17.046;2023-02-15T07:19:28;58.35;;;28.58;;
31716;SDS011;18301;51.076;17.046;2023-02-15T07:24:29;61.78;;;27.15;;
31716;SDS011;18301;51.076;17.046;2023-02-15T07:29:31;50.45;;;24.75;;
31716;SDS011;18301;51.076;17.046;2023-02-15T07:34:32;47.03;;;21.50;;
31716;SDS011;18301;51.076;17.046;2023-02-15T07:39:33;44.05;;;19.92;;
31716;SDS011;18301;51.076;17.046;2023-02-15T07:44:35;46.17;;;20.70;;
31716;SDS011;18301;51.076;17.046;2023-02-15T07:49:36;39.47;;;19.60;;
31716;SDS011;18301;51.076;17.046;2023-02-15T07:54:38;42.50;;;20.67;;
31716;SDS011;18301;51.076;17.046;2023-02-15T07:59:39;40.03;;;21.10;;
31716;SDS011;18301;51.076;17.046;2023-02-15T08:04:41;40.30;;;20.45;;
31716;SDS011;18301;51.076;17.046;2023-02-15T08:09:42;40.55;;;20.73;;
31716;SDS011;18301;51.076;17.046;2023-02-15T08:14:44;41.42;;;19.52;;
31716;SDS011;18301;51.076;17.046;2023-02-15T08:19:45;41.35;;;19.30;;
31716;SDS011;18301;51.076;17.046;2023-02-15T08:24:47;37.58;;;17.67;;
31716;SDS011;18301;51.076;17.046;2023-02-15T08:29:49;40.55;;;18.58;;
31716;SDS011;18301;51.076;17.046;2023-02-15T08:34:50;39.88;;;19.75;;
31716;SDS011;18301;51.076;17.046;2023-02-15T08:39:52;36.50;;;18.85;;
31716;SDS011;18301;51.076;17.046;2023-02-15T08:44:53;40.97;;;19.60;;
31716;SDS011;18301;51.076;17.046;2023-02-15T08:49:55;35.30;;;17.13;;
31716;SDS011;18301;51.076;17.046;2023-02-15T08:54:57;36.45;;;18.35;;
31716;SDS011;18301;51.076;17.046;2023-02-15T08:59:58;36.33;;;18.05;;
31716;SDS011;18301;51.076;17.046;2023-02-15T09:04:59;40.47;;;18.65;;
31716;SDS011;18301;51.076;17.046;2023-02-15T09:10:01;37.00;;;18.67;;
31716;SDS011;18301;51.076;17.046;2023-02-15T09:15:02;37.05;;;17.88;;
31716;SDS011;18301;51.076;17.046;2023-02-15T09:20:04;39.10;;;18.38;;
31716;SDS011;18301;51.076;17.046;2023-02-15T09:25:06;39.50;;;18.85;;
31716;SDS011;18301;51.076;17.046;2023-02-15T09:30:08;36.55;;;18.33;;
31716;SDS011;18301;51.076;17.046;2023-02-15T09:35:10;34.83;;;17.58;;
31716;SDS011;18301;51.076;17.046;2023-02-15T09:40:12;34.50;;;17.10;;
31716;SDS011;18301;51.076;17.046;2023-02-15T10:01:24;36.10;;;17.92;;
31716;SDS011;18301;51.076;17.046;2023-02-15T10:27:47;41.03;;;19.90;;
31716;SDS011;18301;51.076;17.046;2023-02-15T10:32:53;40.33;;;19.38;;
31716;SDS011;18301;51.076;17.046;2023-02-15T10:38:09;34.28;;;17.52;;
31716;SDS011;18301;51.076;17.046;2023-02-15T10:49:09;37.03;;;18.65;;
31716;SDS011;18301;51.076;17.046;2023-02-15T10:55:02;34.45;;;18.38;;
31716;SDS011;18301;51.076;17.046;2023-02-15T11:00:13;40.20;;;18.70;;
31716;SDS011;18301;51.076;17.046;2023-02-15T11:05:21;41.85;;;19.70;;
31716;SDS011;18301;51.076;17.046;2023-02-15T11:10:37;38.87;;;19.00;;
31716;SDS011;18301;51.076;17.046;2023-02-15T11:15:44;38.92;;;20.10;;
31716;SDS011;18301;51.076;17.046;2023-02-15T11:26:04;38.13;;;20.45;;
31716;SDS011;18301;51.076;17.046;2023-02-15T11:31:16;38.33;;;19.80;;
31716;SDS011;18301;51.076;17.046;2023-02-15T11:36:41;39.80;;;19.40;;
31716;SDS011;18301;51.076;17.046;2023-02-15T11:41:45;41.90;;;20.17;;
31716;SDS011;18301;51.076;17.046;2023-02-15T11:46:53;38.50;;;18.88;;
31716;SDS011;18301;51.076;17.046;2023-02-15T11:51:55;36.00;;;18.65;;
31716;SDS011;18301;51.076;17.046;2023-02-15T11:56:58;39.80;;;19.98;;
31716;SDS011;18301;51.076;17.046;2023-02-15T12:02:18;38.40;;;19.25;;
31716;SDS011;18301;51.076;17.046;2023-02-15T12:07:35;38.80;;;18.80;;
31716;SDS011;18301;51.076;17.046;2023-02-15T12:12:41;38.58;;;19.20;;
31716;SDS011;18301;51.076;17.046;2023-02-15T12:17:50;36.47;;;19.17;;
31716;SDS011;18301;51.076;17.046;2023-02-15T12:23:00;36.92;;;18.80;;
31716;SDS011;18301;51.076;17.046;2023-02-15T12:28:14;36.28;;;18.63;;
31716;SDS011;18301;51.076;17.046;2023-02-15T12:33:30;37.47;;;19.20;;
31716;SDS011;18301;51.076;17.046;2023-02-15T12:38:36;38.97;;;19.38;;
31716;SDS011;18301;51.076;17.046;2023-02-15T12:43:38;37.78;;;18.77;;
31716;SDS011;18301;51.076;17.046;2023-02-15T12:48:40;41.13;;;19.65;;
31716;SDS011;18301;51.076;17.046;2023-02-15T12:53:41;34.95;;;18.33;;
31716;SDS011;18301;51.076;17.046;2023-02-15T12:58:45;36.03;;;17.50;;
31716;SDS011;18301;51.076;17.046;2023-02-15T13:04:00;37.13;;;18.20;;
31716;SDS011;18301;51.076;17.046;2023-02-15T13:09:14;38.17;;;18.85;;
31716;SDS011;18301;51.076;17.046;2023-02-15T13:14:30;39.03;;;19.08;;
31716;SDS011;18301;51.076;17.046;2023-02-15T13:24:43;36.67;;;19.23;;
31716;SDS011;18301;51.076;17.046;2023-02-15T13:29:53;37.58;;;18.33;;
31716;SDS011;18301;51.076;17.046;2023-02-15T13:35:00;36.03;;;18.30;;
31716;SDS011;18301;51.076;17.046;2023-02-15T13:40:08;37.22;;;19.55;;
31716;SDS011;18301;51.076;17.046;2023-02-15T13:45:39;35.28;;;18.33;;
31716;SDS011;18301;51.076;17.046;2023-02-15T14:01:46;33.45;;;17.80;;
31716;SDS011;18301;51.076;17.046;2023-02-15T14:23:32;38.33;;;19.33;;
31716;SDS011;18301;51.076;17.046;2023-02-15T14:28:42;36.85;;;18.38;;
31716;SDS011;18301;51.076;17.046;2023-02-15T14:33:53;40.15;;;19.65;;
31716;SDS011;18301;51.076;17.046;2023-02-15T14:38:59;34.20;;;16.08;;
31716;SDS011;18301;51.076;17.046;2023-02-15T14:44:41;36.25;;;17.80;;
31716;SDS011;18301;51.076;17.046;2023-02-15T14:49:49;37.25;;;18.65;;
31716;SDS011;18301;51.076;17.046;2023-02-15T14:54:53;37.90;;;19.25;;
31716;SDS011;18301;51.076;17.046;2023-02-15T14:59:56;38.63;;;19.23;;
31716;SDS011;18301;51.076;17.046;2023-02-15T15:05:01;37.85;;;19.08;;
31716;SDS011;18301;51.076;17.046;2023-02-15T15:30:52;38.00;;;18.85;;
31716;SDS011;18301;51.076;17.046;2023-02-15T15:36:08;39.50;;;19.08;;
31716;SDS011;18301;51.076;17.046;2023-02-15T15:52:01;40.00;;;19.70;;
31716;SDS011;18301;51.076;17.046;2023-02-15T15:57:18;39.75;;;19.55;;
31716;SDS011;18301;51.076;17.046;2023-02-15T16:02:27;43.50;;;20.00;;
31716;SDS011;18301;51.076;17.046;2023-02-15T16:07:29;44.20;;;20.90;;
31716;SDS011;18301;51.076;17.046;2023-02-15T16:12:31;39.15;;;19.33;;
31716;SDS011;18301;51.076;17.046;2023-02-15T16:17:35;43.78;;;20.85;;
31716;SDS011;18301;51.076;17.046;2023-02-15T16:22:37;46.03;;;23.02;;
31716;SDS011;18301;51.076;17.046;2023-02-15T16:27:48;49.53;;;23.98;;
31716;SDS011;18301;51.076;17.046;2023-02-15T16:32:54;47.15;;;22.35;;
31716;SDS011;18301;51.076;17.046;2023-02-15T16:38:16;48.70;;;21.83;;
31716;SDS011;18301;51.076;17.046;2023-02-15T16:43:22;46.20;;;21.67;;
31716;SDS011;18301;51.076;17.046;2023-02-15T16:48:27;46.55;;;21.70;;
31716;SDS011;18301;51.076;17.046;2023-02-15T16:53:28;49.05;;;21.63;;
31716;SDS011;18301;51.076;17.046;2023-02-15T16:58:32;54.40;;;25.23;;
31716;SDS011;18301;51.076;17.046;2023-02-15T17:03:43;59.67;;;26.25;;
31716;SDS011;18301;51.076;17.046;2023-02-15T17:08:49;60.47;;;29.27;;
31716;SDS011;18301;51.076;17.046;2023-02-15T17:19:09;65.38;;;30.35;;
31716;SDS011;18301;51.076;17.046;2023-02-15T17:29:44;65.00;;;28.35;;
31716;SDS011;18301;51.076;17.046;2023-02-15T17:34:50;66.13;;;29.70;;
31716;SDS011;18301;51.076;17.046;2023-02-15T17:39:51;63.88;;;29.48;;
31716;SDS011;18301;51.076;17.046;2023-02-15T17:44:53;64.22;;;30.17;;
31716;SDS011;18301;51.076;17.046;2023-02-15T17:49:55;65.05;;;28.40;;
31716;SDS011;18301;51.076;17.046;2023-02-15T17:54:56;66.43;;;30.10;;
31716;SDS011;18301;51.076;17.046;2023-02-15T18:00:16;68.70;;;31.17;;
31716;SDS011;18301;51.076;17.046;2023-02-15T18:05:36;72.85;;;32.83;;
31716;SDS011;18301;51.076;17.046;2023-02-15T18:10:56;68.63;;;32.63;;
31716;SDS011;18301;51.076;17.046;2023-02-15T18:16:21;75.68;;;32.38;;
31716;SDS011;18301;51.076;17.046;2023-02-15T18:21:27;72.88;;;31.70;;
31716;SDS011;18301;51.076;17.046;2023-02-15T18:26:29;74.85;;;32.15;;
31716;SDS011;18301;51.076;17.046;2023-02-15T18:31:30;74.30;;;33.70;;
31716;SDS011;18301;51.076;17.046;2023-02-15T18:36:33;80.88;;;34.45;;
31716;SDS011;18301;51.076;17.046;2023-02-15T18:41:42;78.85;;;34.88;;
31716;SDS011;18301;51.076;17.046;2023-02-15T18:46:44;76.88;;;36.72;;
31716;SDS011;18301;51.076;17.046;2023-02-15T18:51:45;91.38;;;37.20;;
31716;SDS011;18301;51.076;17.046;2023-02-15T18:56:49;79.03;;;36.20;;
31716;SDS011;18301;51.076;17.046;2023-02-15T19:01:55;77.22;;;34.15;;
31716;SDS011;18301;51.076;17.046;2023-02-15T19:06:57;78.85;;;34.38;;
31716;SDS011;18301;51.076;17.046;2023-02-15T19:11:58;81.78;;;38.33;;
31716;SDS011;18301;51.076;17.046;2023-02-15T19:17:00;87.25;;;36.83;;
31716;SDS011;18301;51.076;17.046;2023-02-15T19:22:01;83.40;;;36.20;;
31716;SDS011;18301;51.076;17.046;2023-02-15T19:27:05;86.03;;;37.58;;
31716;SDS011;18301;51.076;17.046;2023-02-15T19:32:08;80.43;;;37.47;;
31716;SDS011;18301;51.076;17.046;2023-02-15T19:37:19;90.65;;;41.42;;
31716;SDS011;18301;51.076;17.046;2023-02-15T19:42:25;90.40;;;39.75;;
31716;SDS011;18301;51.076;17.046;2023-02-15T19:47:27;95.22;;;41.05;;
31716;SDS011;18301;51.076;17.046;2023-02-15T19:52:28;89.82;;;39.80;;
31716;SDS011;18301;51.076;17.046;2023-02-15T19:57:30;92.30;;;39.00;;
31716;SDS011;18301;51.076;17.046;2023-02-15T20:02:31;86.82;;;37.95;;
31716;SDS011;18301;51.076;17.046;2023-02-15T20:07:33;85.93;;;38.53;;
31716;SDS011;18301;51.076;17.046;2023-02-15T20:12:34;88.35;;;39.17;;
31716;SDS011;18301;51.076;17.046;2023-02-15T20:17:36;92.38;;;39.35;;
31716;SDS011;18301;51.076;17.046;2023-02-15T20:22:37;87.55;;;37.65;;
31716;SDS011;18301;51.076;17.046;2023-02-15T20:27:41;76.30;;;34.67;;
31716;SDS011;18301;51.076;17.046;2023-02-15T20:32:44;82.47;;;37.55;;
31716;SDS011;18301;51.076;17.046;2023-02-15T20:37:47;85.03;;;36.78;;
31716;SDS011;18301;51.076;17.046;2023-02-15T20:42:52;85.00;;;36.38;;
31716;SDS011;18301;51.076;17.046;2023-02-15T20:47:53;87.88;;;37.40;;
31716;SDS011;18301;51.076;17.046;2023-02-15T20:52:56;85.10;;;36.78;;
31716;SDS011;18301;51.076;17.046;2023-02-15T20:57:59;79.50;;;36.10;;
31716;SDS011;18301;51.076;17.046;2023-02-15T21:03:00;81.88;;;35.88;;
31716;SDS011;18301;51.076;17.046;2023-02-15T21:08:05;77.38;;;34.95;;
31716;SDS011;18301;51.076;17.046;2023-02-15T21:13:25;82.55;;;35.53;;
31716;SDS011;18301;51.076;17.046;2023-02-15T21:18:31;76.40;;;34.90;;
31716;SDS011;18301;51.076;17.046;2023-02-15T21:23:35;80.65;;;36.22;;
31716;SDS011;18301;51.076;17.046;2023-02-15T21:28:39;79.88;;;35.08;;
31716;SDS011;18301;51.076;17.046;2023-02-15T21:33:41;80.97;;;36.63;;
31716;SDS011;18301;51.076;17.046;2023-02-15T21:38:44;79.15;;;35.70;;
31716;SDS011;18301;51.076;17.046;2023-02-15T21:43:47;82.55;;;34.92;;
31716;SDS011;18301;51.076;17.046;2023-02-15T21:49:07;82.80;;;36.05;;
31716;SDS011;18301;51.076;17.046;2023-02-15T21:54:11;86.15;;;36.80;;
31716;SDS011;18301;51.076;17.046;2023-02-15T21:59:14;124.60;;;52.83;;
31716;SDS011;18301;51.076;17.046;2023-02-15T22:04:25;116.63;;;45.75;;
31716;SDS011;18301;51.076;17.046;2023-02-15T22:09:29;99.85;;;41.42;;
31716;SDS011;18301;51.076;17.046;2023-02-15T22:14:40;108.03;;;43.70;;
31716;SDS011;18301;51.076;17.046;2023-02-15T22:19:44;112.40;;;44.10;;
31716;SDS011;18301;51.076;17.046;2023-02-15T22:24:46;149.13;;;56.90;;
31716;SDS011;18301;51.076;17.046;2023-02-15T22:29:48;125.88;;;50.05;;
31716;SDS011;18301;51.076;17.046;2023-02-15T22:34:50;147.75;;;55.85;;
31716;SDS011;18301;51.076;17.046;2023-02-15T22:39:52;143.27;;;53.00;;
31716;SDS011;18301;51.076;17.046;2023-02-15T22:44:55;142.57;;;55.28;;
31716;SDS011;18301;51.076;17.046;2023-02-15T22:49:57;125.32;;;51.03;;
31716;SDS011;18301;51.076;17.046;2023-02-15T22:54:59;131.38;;;50.80;;
31716;SDS011;18301;51.076;17.046;2023-02-15T23:00:01;135.25;;;47.40;;
31716;SDS011;18301;51.076;17.046;2023-02-15T23:05:02;161.05;;;54.47;;
31716;SDS011;18301;51.076;17.046;2023-02-15T23:10:04;153.27;;;52.38;;
31716;SDS011;18301;51.076;17.046;2023-02-15T23:15:09;158.13;;;51.72;;
31716;SDS011;18301;51.076;17.046;2023-02-15T23:20:14;146.73;;;50.15;;
31716;SDS011;18301;51.076;17.046;2023-02-15T23:25:15;148.27;;;49.50;;
31716;SDS011;18301;51.076;17.046;2023-02-15T23:30:19;147.75;;;49.60;;
31716;SDS011;18301;51.076;17.046;2023-02-15T23:35:20;157.50;;;51.10;;
31716;SDS011;18301;51.076;17.046;2023-02-15T23:40:22;147.32;;;50.15;;
31716;SDS011;18301;51.076;17.046;2023-02-15T23:45:42;146.30;;;48.13;;
31716;SDS011;18301;51.076;17.046;2023-02-15T23:50:43;142.48;;;49.15;;
31716;SDS011;18301;51.076;17.046;2023-02-15T23:55:45;122.40;;;44.38;;
